Time;durP1;ratioP1;P1;durP2;ratioP2;P2;SDS_P1;SDS_P2;PMS_P1;PMS_P2;Temp;Humidity;BMP_temperature;BMP_pressure;BME280_temperature;BME280_humidity;BME280_pressure;Samples;Min_cycle;Max_cycle;Signal;HPM_P1;HPM_P2
2021/09/13 00:00:44;;;;;;;3.43;2.60;;;16.60;99.90;;;;;;5090819;28;20240;-60
2021/09/13 00:03:11;;;;;;;5.45;2.60;;;16.60;99.90;;;;;;5090798;28;20297;-59
2021/09/13 00:05:39;;;;;;;4.53;2.50;;;16.60;99.90;;;;;;5090685;28;20253;-60
2021/09/13 00:08:06;;;;;;;3.43;2.50;;;16.60;99.90;;;;;;5090374;28;20277;-60
2021/09/13 00:10:33;;;;;;;4.80;2.50;;;16.70;99.90;;;;;;5090486;28;20212;-60
2021/09/13 00:12:59;;;;;;;3.65;2.53;;;16.70;99.90;;;;;;5090357;28;20228;-58
2021/09/13 00:15:26;;;;;;;2.83;2.60;;;16.80;99.90;;;;;;5092876;28;20204;-59
2021/09/13 00:17:53;;;;;;;6.28;2.50;;;16.90;99.90;;;;;;5094392;28;20257;-59
2021/09/13 00:20:20;;;;;;;3.22;2.80;;;17.00;99.90;;;;;;5094558;28;20200;-59
2021/09/13 00:22:48;;;;;;;3.20;2.67;;;17.00;99.90;;;;;;5094173;28;20289;-59
2021/09/13 00:25:14;;;;;;;2.78;2.58;;;17.10;99.90;;;;;;5093849;28;20215;-59
2021/09/13 00:27:41;;;;;;;4.40;2.28;;;17.20;99.90;;;;;;5094403;28;20231;-58
2021/09/13 00:30:08;;;;;;;4.18;2.85;;;17.20;99.90;;;;;;5094157;28;20204;-59
2021/09/13 00:32:35;;;;;;;5.53;2.25;;;17.20;99.90;;;;;;5094031;28;20232;-59
2021/09/13 00:35:02;;;;;;;4.28;2.20;;;17.10;99.90;;;;;;5094013;28;20208;-59
2021/09/13 00:37:28;;;;;;;3.83;2.40;;;17.00;99.90;;;;;;5093951;28;20211;-58
2021/09/13 00:39:56;;;;;;;3.08;2.78;;;16.90;99.90;;;;;;5093644;28;20211;-59
2021/09/13 00:42:23;;;;;;;2.72;2.20;;;16.90;99.90;;;;;;5094048;28;20280;-59
2021/09/13 00:44:50;;;;;;;4.75;2.40;;;16.80;99.90;;;;;;5093751;28;20672;-58
2021/09/13 00:47:17;;;;;;;3.40;2.63;;;16.60;99.90;;;;;;5093929;28;20214;-60
2021/09/13 00:49:44;;;;;;;3.50;2.63;;;16.50;99.90;;;;;;5093737;28;20210;-59
2021/09/13 00:52:11;;;;;;;3.03;2.50;;;16.40;99.90;;;;;;5093701;28;20212;-60
2021/09/13 00:54:38;;;;;;;2.70;2.47;;;16.20;99.90;;;;;;5093711;28;20204;-59
2021/09/13 00:57:07;;;;;;;2.53;2.33;;;16.10;99.90;;;;;;5094035;28;20572;-58
2021/09/13 00:59:34;;;;;;;3.60;2.20;;;16.00;99.90;;;;;;5093971;28;20203;-59
2021/09/13 01:02:00;;;;;;;4.43;2.70;;;16.00;99.90;;;;;;5093693;28;20613;-59
2021/09/13 01:04:27;;;;;;;4.10;2.53;;;15.90;99.90;;;;;;5093895;28;20220;-60
2021/09/13 01:06:54;;;;;;;2.73;2.43;;;15.80;99.90;;;;;;5094175;28;20204;-59
2021/09/13 01:09:20;;;;;;;4.50;2.40;;;15.80;99.90;;;;;;5093795;28;20695;-59
2021/09/13 01:11:47;;;;;;;3.03;2.73;;;15.80;99.90;;;;;;5093710;28;20208;-59
2021/09/13 01:14:17;;;;;;;3.10;2.67;;;15.90;99.90;;;;;;5093209;28;20227;-59
2021/09/13 01:16:43;;;;;;;3.77;3.10;;;15.90;99.90;;;;;;5093456;28;20231;-59
2021/09/13 01:19:10;;;;;;;4.03;2.53;;;15.80;99.90;;;;;;5093491;28;20208;-59
2021/09/13 01:21:41;;;;;;;5.13;2.97;;;15.70;99.90;;;;;;5093091;28;20208;-58
2021/09/13 01:24:10;;;;;;;3.93;2.80;;;15.70;99.90;;;;;;5092960;28;20294;-60
2021/09/13 01:26:36;;;;;;;3.77;2.80;;;15.80;99.90;;;;;;5092613;28;20216;-59
2021/09/13 01:29:03;;;;;;;3.83;2.70;;;15.70;99.90;;;;;;5092880;28;20620;-59
2021/09/13 01:31:30;;;;;;;4.10;3.00;;;15.80;99.90;;;;;;5093131;28;20211;-59
2021/09/13 01:33:57;;;;;;;2.93;2.63;;;15.70;99.90;;;;;;5092854;28;20271;-59
2021/09/13 01:36:23;;;;;;;5.37;2.40;;;15.80;99.90;;;;;;5093277;28;20212;-59
2021/09/13 01:38:50;;;;;;;2.90;2.60;;;15.80;99.90;;;;;;5092845;28;20208;-59
2021/09/13 01:41:18;;;;;;;2.83;2.53;;;15.80;99.90;;;;;;5092834;28;20204;-58
2021/09/13 01:43:45;;;;;;;4.07;2.90;;;15.80;99.90;;;;;;5092686;28;20223;-59
2021/09/13 01:46:11;;;;;;;4.20;3.17;;;15.90;99.90;;;;;;5093154;28;20228;-59
2021/09/13 01:48:38;;;;;;;3.33;2.70;;;15.90;99.90;;;;;;5092198;28;20590;-58
2021/09/13 01:51:05;;;;;;;3.50;2.63;;;15.90;99.90;;;;;;5092677;28;20212;-59
2021/09/13 01:53:31;;;;;;;4.80;2.77;;;15.90;99.90;;;;;;5092435;28;20236;-58
2021/09/13 01:55:58;;;;;;;4.70;2.53;;;15.90;99.90;;;;;;5092560;28;20204;-59
2021/09/13 01:58:26;;;;;;;3.70;2.67;;;16.00;99.90;;;;;;5092620;28;20257;-59
2021/09/13 02:00:53;;;;;;;5.00;2.90;;;16.00;99.90;;;;;;5092567;28;20257;-59
2021/09/13 02:03:19;;;;;;;3.40;2.37;;;16.00;99.90;;;;;;5092318;28;20227;-58
2021/09/13 02:05:46;;;;;;;6.30;2.80;;;15.90;99.90;;;;;;5092319;28;20211;-59
2021/09/13 02:08:13;;;;;;;5.73;2.60;;;15.90;99.90;;;;;;5092065;28;20220;-59
2021/09/13 02:10:39;;;;;;;5.40;3.10;;;15.80;99.90;;;;;;5092018;28;20209;-59
2021/09/13 02:13:06;;;;;;;2.90;2.70;;;15.70;99.90;;;;;;5092529;28;20234;-59
2021/09/13 02:15:34;;;;;;;5.40;2.90;;;15.60;99.90;;;;;;5091943;28;20223;-60
2021/09/13 02:18:01;;;;;;;3.23;2.83;;;15.70;99.90;;;;;;5091809;28;20220;-59
2021/09/13 02:20:27;;;;;;;3.43;2.70;;;15.70;99.90;;;;;;5092100;28;20204;-59
2021/09/13 02:22:54;;;;;;;6.10;3.00;;;15.70;99.90;;;;;;5091748;28;20273;-58
2021/09/13 02:25:21;;;;;;;4.23;2.97;;;15.70;99.90;;;;;;5091793;28;20201;-58
2021/09/13 02:27:48;;;;;;;4.00;2.90;;;15.70;99.90;;;;;;5091688;28;20207;-58
2021/09/13 02:30:14;;;;;;;5.03;2.70;;;15.70;99.90;;;;;;5091721;28;20211;-57
2021/09/13 02:32:42;;;;;;;4.83;2.83;;;15.70;99.90;;;;;;5091693;28;20243;-60
2021/09/13 02:35:10;;;;;;;3.77;2.63;;;15.60;99.90;;;;;;5091750;28;20200;-60
2021/09/13 02:37:37;;;;;;;4.10;2.90;;;15.60;99.90;;;;;;5090890;28;20212;-59
2021/09/13 02:40:06;;;;;;;3.57;3.27;;;15.60;99.90;;;;;;5091775;28;20579;-60
2021/09/13 02:42:33;;;;;;;3.37;3.00;;;15.50;99.90;;;;;;5091481;28;20739;-60
2021/09/13 02:45:00;;;;;;;3.60;3.30;;;15.60;99.90;;;;;;5091329;28;20204;-59
2021/09/13 02:47:27;;;;;;;4.07;2.90;;;15.60;99.90;;;;;;5091368;28;20679;-60
2021/09/13 02:49:55;;;;;;;3.47;3.03;;;15.60;99.90;;;;;;5091534;28;20597;-60
2021/09/13 02:52:21;;;;;;;4.67;3.10;;;15.50;99.90;;;;;;5091535;28;20204;-60
2021/09/13 02:54:48;;;;;;;3.60;2.87;;;15.40;99.90;;;;;;5091401;28;20211;-60
2021/09/13 02:57:15;;;;;;;4.23;3.00;;;15.40;99.90;;;;;;5091325;28;20203;-60
2021/09/13 02:59:41;;;;;;;6.70;3.57;;;15.40;99.90;;;;;;5091738;28;20196;-60
2021/09/13 03:02:08;;;;;;;3.07;2.77;;;15.40;99.90;;;;;;5091232;28;20691;-60
2021/09/13 03:04:34;;;;;;;3.60;3.17;;;15.40;99.90;;;;;;5091204;28;20630;-59
2021/09/13 03:07:03;;;;;;;3.77;3.10;;;15.40;99.90;;;;;;5091340;28;20207;-59
2021/09/13 03:09:29;;;;;;;3.10;2.80;;;15.40;99.90;;;;;;5090889;28;20277;-60
2021/09/13 03:11:56;;;;;;;3.43;3.13;;;15.40;99.90;;;;;;5090899;28;20638;-60
2021/09/13 03:14:23;;;;;;;4.03;2.97;;;15.40;99.90;;;;;;5090866;28;20762;-60
2021/09/13 03:16:50;;;;;;;3.80;3.07;;;15.40;99.90;;;;;;5091207;28;20581;-60
2021/09/13 03:19:17;;;;;;;4.60;3.00;;;15.40;99.90;;;;;;5090980;28;20253;-60
2021/09/13 03:21:44;;;;;;;5.17;3.33;;;15.50;99.90;;;;;;5091060;28;20212;-60
2021/09/13 03:24:12;;;;;;;3.20;2.90;;;15.60;99.90;;;;;;5090892;28;20235;-60
2021/09/13 03:26:39;;;;;;;3.63;3.13;;;15.60;99.90;;;;;;5090896;28;20200;-60
2021/09/13 03:29:05;;;;;;;3.67;3.10;;;15.70;99.90;;;;;;5090974;28;20224;-59
2021/09/13 03:31:32;;;;;;;5.43;3.30;;;15.70;99.90;;;;;;5091285;28;20212;-60
2021/09/13 03:33:59;;;;;;;7.03;4.70;;;15.80;99.90;;;;;;5091394;28;20232;-60
2021/09/13 03:36:25;;;;;;;5.17;2.73;;;15.80;99.90;;;;;;5091055;28;20241;-60
2021/09/13 03:38:52;;;;;;;4.20;3.33;;;15.70;99.90;;;;;;5090794;28;20204;-59
2021/09/13 03:41:20;;;;;;;5.23;3.70;;;15.70;99.90;;;;;;5091018;28;20219;-60
2021/09/13 03:43:47;;;;;;;4.77;3.20;;;15.80;99.90;;;;;;5090792;28;20232;-60
2021/09/13 03:46:13;;;;;;;3.97;3.40;;;15.80;99.90;;;;;;5090808;28;20201;-60
2021/09/13 03:48:40;;;;;;;6.17;3.40;;;15.80;99.90;;;;;;5091560;28;20707;-60
2021/09/13 03:51:07;;;;;;;3.50;3.20;;;15.70;99.90;;;;;;5094952;28;20208;-60
2021/09/13 03:53:34;;;;;;;4.07;3.10;;;15.80;99.90;;;;;;5094494;28;20711;-60
2021/09/13 03:56:00;;;;;;;5.10;3.10;;;15.70;99.90;;;;;;5094961;28;20200;-60
2021/09/13 03:58:28;;;;;;;5.00;3.37;;;15.80;99.90;;;;;;5094766;28;20672;-60
2021/09/13 04:00:56;;;;;;;3.50;3.20;;;15.80;99.90;;;;;;5094784;28;20301;-60
2021/09/13 04:03:27;;;;;;;3.47;3.17;;;15.80;99.90;;;;;;5094786;28;20235;-60
2021/09/13 04:05:56;;;;;;;4.27;3.43;;;15.80;99.90;;;;;;5094713;28;20706;-60
2021/09/13 04:08:40;;;;;;;3.73;3.10;;;15.90;99.90;;;;;;5094418;28;20769;-60
2021/09/13 04:11:18;;;;;;;5.57;3.20;;;15.90;99.90;;;;;;5094754;28;20212;-60
2021/09/13 04:13:46;;;;;;;3.70;3.27;;;15.90;99.90;;;;;;5094664;28;20223;-59
2021/09/13 04:16:13;;;;;;;3.63;2.80;;;15.90;99.90;;;;;;5095363;28;20211;-60
2021/09/13 04:18:41;;;;;;;3.40;3.10;;;15.90;99.90;;;;;;5094787;28;20205;-60
2021/09/13 04:21:07;;;;;;;5.83;3.40;;;15.90;99.90;;;;;;5094773;28;20235;-60
2021/09/13 04:23:34;;;;;;;5.93;3.50;;;15.80;99.90;;;;;;5094647;28;20224;-59
2021/09/13 04:26:01;;;;;;;4.13;3.17;;;15.60;99.90;;;;;;5094319;28;20200;-59
2021/09/13 04:28:27;;;;;;;4.30;3.37;;;15.50;99.90;;;;;;5094004;28;20249;-60
2021/09/13 04:30:55;;;;;;;5.57;3.27;;;15.50;99.90;;;;;;5094280;28;20204;-60
2021/09/13 04:33:22;;;;;;;4.90;3.23;;;15.50;99.90;;;;;;5093855;28;20244;-60
2021/09/13 04:35:49;;;;;;;3.07;2.83;;;15.40;99.90;;;;;;5094178;28;20246;-60
2021/09/13 04:38:16;;;;;;;3.83;3.40;;;15.40;99.90;;;;;;5093878;28;20687;-60
2021/09/13 04:40:42;;;;;;;4.53;3.33;;;15.40;99.90;;;;;;5094324;28;20232;-60
2021/09/13 04:43:09;;;;;;;5.00;3.70;;;15.40;99.90;;;;;;5093923;28;20228;-59
2021/09/13 04:45:36;;;;;;;5.03;3.50;;;15.40;99.90;;;;;;5093623;28;20582;-60
2021/09/13 04:48:04;;;;;;;5.60;3.57;;;15.40;99.90;;;;;;5093812;28;20211;-60
2021/09/13 04:50:31;;;;;;;3.53;3.23;;;15.40;99.90;;;;;;5093859;28;20227;-60
2021/09/13 04:52:57;;;;;;;4.80;3.67;;;15.40;99.90;;;;;;5093781;28;20234;-59
2021/09/13 04:55:24;;;;;;;4.50;3.40;;;15.40;99.90;;;;;;5094063;28;20212;-60
2021/09/13 04:57:51;;;;;;;4.60;3.57;;;15.40;99.90;;;;;;5093552;28;20234;-60
2021/09/13 05:00:20;;;;;;;6.37;3.70;;;15.40;99.90;;;;;;5092683;28;20712;-60
2021/09/13 05:02:47;;;;;;;5.87;4.03;;;15.40;99.90;;;;;;5093694;28;20238;-60
2021/09/13 05:05:15;;;;;;;9.00;6.60;;;15.40;99.90;;;;;;5093448;28;20204;-59
2021/09/13 05:07:42;;;;;;;4.97;3.70;;;15.50;99.90;;;;;;5093516;28;20240;-60
2021/09/13 05:10:10;;;;;;;5.60;3.43;;;15.50;99.90;;;;;;5094051;28;20226;-61
2021/09/13 05:12:37;;;;;;;5.67;4.00;;;15.50;99.90;;;;;;5093922;28;20274;-61
2021/09/13 05:15:04;;;;;;;3.83;3.50;;;15.50;99.90;;;;;;5093115;28;20587;-61
2021/09/13 05:17:30;;;;;;;5.13;3.53;;;15.50;99.90;;;;;;5093139;28;20213;-61
2021/09/13 05:19:57;;;;;;;4.67;3.73;;;15.50;99.90;;;;;;5092992;28;20207;-62
2021/09/13 05:22:25;;;;;;;6.00;3.90;;;15.60;99.90;;;;;;5092931;28;20740;-59
2021/09/13 05:24:52;;;;;;;5.57;3.90;;;15.60;99.90;;;;;;5092918;28;20255;-59
2021/09/13 05:27:19;;;;;;;4.23;3.60;;;15.70;99.90;;;;;;5093104;28;20627;-62
2021/09/13 05:29:45;;;;;;;5.17;3.47;;;15.80;99.90;;;;;;5092893;28;20232;-60
2021/09/13 05:32:12;;;;;;;4.43;3.60;;;15.70;99.90;;;;;;5092873;28;20211;-59
2021/09/13 05:34:39;;;;;;;5.43;4.50;;;15.80;99.90;;;;;;5092624;28;20587;-62
2021/09/13 05:37:06;;;;;;;7.77;5.57;;;15.70;99.90;;;;;;5092731;28;20208;-59
2021/09/13 05:39:34;;;;;;;6.60;5.87;;;15.70;99.90;;;;;;5092688;28;20257;-60
2021/09/13 05:42:01;;;;;;;6.63;5.00;;;15.60;99.90;;;;;;5092624;28;20215;-60
2021/09/13 05:44:28;;;;;;;6.33;3.97;;;15.60;99.90;;;;;;5092654;28;20247;-60
2021/09/13 05:46:55;;;;;;;4.73;4.30;;;15.70;99.90;;;;;;5092727;28;20230;-59
2021/09/13 05:49:22;;;;;;;4.40;3.80;;;15.70;99.90;;;;;;5092456;28;20723;-58
2021/09/13 05:51:51;;;;;;;4.60;3.93;;;15.90;99.90;;;;;;5092467;28;20212;-59
2021/09/13 05:54:22;;;;;;;6.40;5.00;;;16.10;99.90;;;;;;5092206;28;20645;-59
2021/09/13 05:56:52;;;;;;;4.67;4.27;;;16.40;99.90;;;;;;5092715;28;20272;-59
2021/09/13 05:59:19;;;;;;;7.10;4.60;;;16.80;99.90;;;;;;5092384;28;20292;-58
2021/09/13 06:01:45;;;;;;;4.47;3.93;;;17.10;99.90;;;;;;5092485;28;20668;-59
2021/09/13 06:04:12;;;;;;;7.38;5.90;;;17.40;99.90;;;;;;5092254;28;20589;-59
2021/09/13 06:06:39;;;;;;;5.70;4.10;;;17.70;99.90;;;;;;5092446;28;20254;-59
2021/09/13 06:09:06;;;;;;;8.32;3.80;;;17.90;99.90;;;;;;5092099;28;20204;-59
2021/09/13 06:11:33;;;;;;;3.67;3.30;;;18.00;99.90;;;;;;5092468;28;20200;-61
2021/09/13 06:14:01;;;;;;;4.85;3.40;;;18.00;99.90;;;;;;5092154;28;20228;-59
2021/09/13 06:16:28;;;;;;;7.00;3.60;;;18.00;99.90;;;;;;5092111;28;20208;-59
2021/09/13 06:18:55;;;;;;;6.33;3.40;;;18.00;99.90;;;;;;5092224;28;20216;-58
2021/09/13 06:21:21;;;;;;;6.15;4.25;;;17.90;99.90;;;;;;5092008;28;20210;-58
2021/09/13 06:23:48;;;;;;;4.82;3.70;;;17.90;99.90;;;;;;5091841;28;20231;-58
2021/09/13 06:26:16;;;;;;;6.88;3.65;;;17.90;99.90;;;;;;5091792;28;20208;-59
2021/09/13 06:28:43;;;;;;;3.88;3.05;;;17.90;99.90;;;;;;5091515;28;20672;-58
2021/09/13 06:31:11;;;;;;;5.50;3.33;;;18.10;99.90;;;;;;5091772;28;20221;-60
2021/09/13 06:33:38;;;;;;;7.07;3.80;;;18.40;99.90;;;;;;5091350;28;20595;-60
2021/09/13 06:36:05;;;;;;;7.65;3.80;;;19.00;99.90;;;;;;5091603;28;20601;-58
2021/09/13 06:38:32;;;;;;;6.05;2.97;;;19.90;99.90;;;;;;5091452;28;20208;-60
2021/09/13 06:41:00;;;;;;;7.47;2.83;;;20.40;99.90;;;;;;5091805;28;20207;-59
2021/09/13 06:43:28;;;;;;;4.93;3.10;;;20.70;99.90;;;;;;5091432;28;20262;-59
2021/09/13 06:46:08;;;;;;;5.38;3.00;;;21.00;99.90;;;;;;5091344;28;20672;-59
2021/09/13 06:48:37;;;;;;;4.10;2.80;;;21.30;99.90;;;;;;5091318;28;20204;-60
2021/09/13 06:51:03;;;;;;;4.20;2.67;;;22.40;99.90;;;;;;5091376;28;20232;-60
2021/09/13 06:53:30;;;;;;;4.32;2.30;;;23.40;99.90;;;;;;5091135;28;20483;-58
2021/09/13 06:55:57;;;;;;;4.85;2.67;;;23.70;99.90;;;;;;5091196;28;20208;-59
2021/09/13 06:58:24;;;;;;;5.47;2.80;;;23.50;99.90;;;;;;5091192;28;20215;-60
2021/09/13 07:00:52;;;;;;;6.03;2.47;;;23.20;99.90;;;;;;5091246;28;20200;-58
2021/09/13 07:03:19;;;;;;;8.93;5.60;;;22.80;99.90;;;;;;5090856;28;20228;-59
2021/09/13 07:05:47;;;;;;;3.78;2.78;;;22.50;99.90;;;;;;5091402;28;20287;-59
2021/09/13 07:08:14;;;;;;;4.35;3.00;;;22.40;99.90;;;;;;5091438;28;20208;-60
2021/09/13 07:10:41;;;;;;;6.30;2.70;;;22.20;99.90;;;;;;5092502;28;20235;-60
2021/09/13 07:13:07;;;;;;;3.60;2.63;;;22.00;99.90;;;;;;5091104;28;20285;-60
2021/09/13 07:15:34;;;;;;;4.65;2.70;;;21.80;99.90;;;;;;5090895;28;20204;-60
2021/09/13 07:18:01;;;;;;;3.10;2.80;;;21.80;99.90;;;;;;5090965;28;20250;-60
2021/09/13 07:20:27;;;;;;;5.28;2.80;;;21.60;99.90;;;;;;5091243;28;20200;-60
2021/09/13 07:22:55;;;;;;;8.90;5.65;;;21.50;99.90;;;;;;5090638;28;20224;-59
2021/09/13 07:25:22;;;;;;;4.45;3.33;;;21.60;99.90;;;;;;5090761;28;20211;-60
2021/09/13 07:27:49;;;;;;;4.05;2.80;;;22.00;99.90;;;;;;5091371;28;20261;-60
2021/09/13 07:30:16;;;;;;;3.78;2.42;;;23.20;99.90;;;;;;5090833;28;20287;-60
2021/09/13 07:32:43;;;;;;;4.25;2.40;;;24.50;99.90;;;;;;5090883;28;20239;-60
2021/09/13 07:35:11;;;;;;;3.35;2.67;;;26.20;99.90;;;;;;5090994;28;20203;-60
2021/09/13 07:37:39;;;;;;;3.45;2.60;;;27.20;99.90;;;;;;5091219;28;20216;-60
2021/09/13 07:40:09;;;;;;;4.00;2.88;;;27.50;99.90;;;;;;5090841;28;20668;-61
2021/09/13 07:42:36;;;;;;;4.32;2.80;;;27.50;99.90;;;;;;5091020;28;20252;-60
2021/09/13 07:45:03;;;;;;;3.97;2.83;;;27.40;99.90;;;;;;5090427;28;20615;-59
2021/09/13 07:47:30;;;;;;;3.92;2.97;;;27.60;99.90;;;;;;5090752;28;20204;-60
2021/09/13 07:49:58;;;;;;;3.33;2.70;;;28.30;99.90;;;;;;5090726;28;20224;-60
2021/09/13 07:52:24;;;;;;;5.22;2.70;;;28.30;99.90;;;;;;5090765;28;20607;-61
2021/09/13 07:54:51;;;;;;;4.28;2.40;;;27.80;99.90;;;;;;5090521;28;20205;-59
2021/09/13 07:57:19;;;;;;;6.25;2.97;;;27.20;99.90;;;;;;5090599;28;20625;-60
2021/09/13 07:59:46;;;;;;;3.85;3.00;;;26.70;99.90;;;;;;5090302;28;20204;-60
2021/09/13 08:02:13;;;;;;;4.90;2.60;;;25.90;99.90;;;;;;5090491;28;20618;-59
2021/09/13 08:04:40;;;;;;;4.40;3.00;;;24.80;99.90;;;;;;5090695;28;20208;-60
2021/09/13 08:07:07;;;;;;;4.97;2.95;;;23.80;99.90;;;;;;5090621;28;20204;-60
2021/09/13 08:09:34;;;;;;;5.35;2.72;;;23.10;99.90;;;;;;5090815;28;20243;-60
2021/09/13 08:12:01;;;;;;;4.90;3.10;;;22.80;99.90;;;;;;5090748;28;20224;-60
2021/09/13 08:14:28;;;;;;;7.50;2.80;;;22.80;99.90;;;;;;5090283;28;20220;-60
2021/09/13 08:16:56;;;;;;;4.85;2.78;;;23.10;99.90;;;;;;5090709;28;20261;-60
2021/09/13 08:19:22;;;;;;;4.20;2.67;;;23.30;99.90;;;;;;5090614;28;20215;-60
2021/09/13 08:21:49;;;;;;;5.30;2.50;;;23.50;99.90;;;;;;5090487;28;20201;-60
2021/09/13 08:24:16;;;;;;;5.03;2.40;;;23.60;99.90;;;;;;5090148;28;20228;-60
2021/09/13 08:26:43;;;;;;;4.32;2.28;;;23.70;99.90;;;;;;5090287;28;20207;-60
2021/09/13 08:29:14;;;;;;;4.30;2.28;;;23.70;99.90;;;;;;5090046;28;20655;-59
2021/09/13 08:31:42;;;;;;;4.25;2.33;;;23.50;99.90;;;;;;5090625;28;20232;-60
2021/09/13 08:34:09;;;;;;;2.78;2.13;;;23.40;99.90;;;;;;5090027;28;20236;-60
2021/09/13 08:36:36;;;;;;;4.45;2.22;;;23.40;99.90;;;;;;5092776;28;20205;-60
2021/09/13 08:39:04;;;;;;;2.22;1.80;;;23.50;99.90;;;;;;5094569;28;20377;-65
2021/09/13 08:41:32;;;;;;;4.70;2.30;;;23.50;99.90;;;;;;5094379;28;20625;-61
2021/09/13 08:44:00;;;;;;;5.40;2.55;;;23.40;99.90;;;;;;5093908;28;20232;-61
2021/09/13 08:46:36;;;;;;;2.45;2.25;;;23.20;99.90;;;;;;5093950;28;20211;-61
2021/09/13 08:49:06;;;;;;;2.53;1.90;;;23.20;99.90;;;;;;5094186;28;20204;-59
2021/09/13 08:51:33;;;;;;;5.40;2.50;;;23.30;99.90;;;;;;5094285;28;20262;-58
2021/09/13 08:54:03;;;;;;;4.88;2.30;;;23.40;99.90;;;;;;5093970;28;20711;-59
2021/09/13 08:56:35;;;;;;;3.45;1.98;;;23.50;99.90;;;;;;5094547;28;20663;-58
2021/09/13 08:59:04;;;;;;;1.98;1.88;;;23.60;99.90;;;;;;5094899;28;20577;-59
2021/09/13 09:01:32;;;;;;;2.35;2.10;;;23.50;99.90;;;;;;5094779;28;20235;-59
2021/09/13 09:03:59;;;;;;;3.47;2.10;;;23.50;99.90;;;;;;5094228;28;20267;-59
2021/09/13 09:06:34;;;;;;;4.43;2.00;;;23.60;99.90;;;;;;5094488;28;20485;-59
2021/09/13 09:09:03;;;;;;;3.03;2.10;;;23.70;99.90;;;;;;5093942;28;20542;-58
2021/09/13 09:11:49;;;;;;;3.80;2.00;;;23.80;99.90;;;;;;5094003;28;20220;-59
2021/09/13 09:14:27;;;;;;;4.28;1.88;;;23.70;99.90;;;;;;5094012;28;20224;-58
2021/09/13 09:17:00;;;;;;;1.80;1.52;;;23.70;99.90;;;;;;5094221;28;20212;-57
2021/09/13 09:19:26;;;;;;;4.00;1.88;;;23.80;99.90;;;;;;5094302;28;20208;-59
2021/09/13 09:21:55;;;;;;;2.20;2.00;;;23.70;99.90;;;;;;5094303;28;20694;-59
2021/09/13 09:24:22;;;;;;;2.15;2.00;;;23.70;99.90;;;;;;5094002;28;20228;-59
2021/09/13 09:27:01;;;;;;;2.85;2.10;;;23.60;99.90;;;;;;5093945;28;20218;-58
2021/09/13 09:29:29;;;;;;;3.92;1.83;;;23.80;99.90;;;;;;5094216;28;20239;-59
2021/09/13 09:31:57;;;;;;;3.22;1.92;;;24.00;99.90;;;;;;5094276;28;20649;-59
2021/09/13 09:34:25;;;;;;;2.33;1.85;;;24.10;99.90;;;;;;5093473;28;20273;-54
2021/09/13 09:37:10;;;;;;;2.13;1.92;;;24.20;99.90;;;;;;5092813;28;20204;-54
2021/09/13 09:39:38;;;;;;;2.25;1.85;;;24.20;99.90;;;;;;5092800;28;20669;-58
2021/09/13 09:42:09;;;;;;;3.10;1.73;;;24.10;99.90;;;;;;5093115;28;20226;-55
2021/09/13 09:44:36;;;;;;;4.50;2.10;;;24.20;99.90;;;;;;5092947;28;20211;-54
2021/09/13 09:47:07;;;;;;;5.38;2.10;;;24.30;99.90;;;;;;5092505;28;20226;-55
2021/09/13 09:49:42;;;;;;;4.22;2.17;;;24.30;99.90;;;;;;5092725;28;20299;-56
2021/09/13 09:52:11;;;;;;;2.67;2.15;;;24.40;99.90;;;;;;5092402;28;20270;-57
2021/09/13 09:54:38;;;;;;;4.10;2.05;;;24.30;99.90;;;;;;5092703;28;20231;-55
2021/09/13 09:57:06;;;;;;;2.35;2.10;;;24.30;99.90;;;;;;5092548;28;20231;-55
2021/09/13 09:59:34;;;;;;;4.70;2.45;;;24.40;99.90;;;;;;5092230;28;20506;-54
2021/09/13 10:02:10;;;;;;;2.90;2.03;;;24.50;99.90;;;;;;5092445;28;20200;-57
2021/09/13 10:04:37;;;;;;;4.60;2.35;;;24.70;99.90;;;;;;5091974;28;20203;-55
2021/09/13 10:07:04;;;;;;;3.65;2.33;;;24.80;99.90;;;;;;5092205;28;20628;-58
2021/09/13 10:09:32;;;;;;;5.05;2.50;;;24.80;99.90;;;;;;5091936;28;20641;-55
2021/09/13 10:12:04;;;;;;;5.47;2.13;;;24.80;99.90;;;;;;5091792;28;20238;-57
2021/09/13 10:14:32;;;;;;;2.63;2.42;;;24.90;99.90;;;;;;5091417;28;20704;-57
2021/09/13 10:16:59;;;;;;;3.47;2.38;;;25.00;99.90;;;;;;5091781;28;20212;-54
2021/09/13 10:19:29;;;;;;;3.45;2.33;;;25.20;99.90;;;;;;5091657;28;20211;-55
2021/09/13 10:21:56;;;;;;;3.83;2.25;;;25.30;99.90;;;;;;5092060;28;20656;-56
2021/09/13 10:24:25;;;;;;;3.35;2.30;;;25.40;99.90;;;;;;5091828;28;20235;-56
2021/09/13 10:26:57;;;;;;;2.53;2.20;;;25.60;99.90;;;;;;5091891;28;20608;-54
2021/09/13 10:29:26;;;;;;;4.80;2.70;;;25.80;99.90;;;;;;5088320;28;20437;-62
2021/09/13 10:31:58;;;;;;;4.50;2.10;;;25.90;99.90;;;;;;5091900;28;20224;-60
2021/09/13 10:34:27;;;;;;;2.40;2.20;;;26.10;99.90;;;;;;5091412;28;20285;-59
2021/09/13 10:37:02;;;;;;;3.05;2.10;;;26.20;99.90;;;;;;5091770;28;20293;-60
2021/09/13 10:39:58;;;;;;;3.08;2.28;;;26.30;99.90;;;;;;5090887;28;20588;-61
2021/09/13 10:42:31;;;;;;;2.70;2.50;;;26.40;99.90;;;;;;5091616;28;20204;-60
2021/09/13 10:45:12;;;;;;;4.45;2.55;;;26.50;99.90;;;;;;5091396;28;20204;-58
2021/09/13 10:47:42;;;;;;;2.95;2.42;;;26.40;99.90;;;;;;5091204;28;20214;-57
2021/09/13 10:50:17;;;;;;;4.50;2.60;;;26.50;99.90;;;;;;5091475;28;20212;-56
2021/09/13 10:52:45;;;;;;;4.00;2.25;;;26.50;99.90;;;;;;5091212;28;20343;-58
2021/09/13 10:55:20;;;;;;;2.80;2.22;;;26.40;99.90;;;;;;5091058;28;20724;-62
2021/09/13 10:58:00;;;;;;;2.65;2.40;;;26.20;99.90;;;;;;5090880;28;20207;-60
2021/09/13 11:00:59;;;;;;;4.28;2.50;;;26.20;99.90;;;;;;5091265;28;20209;-59
2021/09/13 11:03:37;;;;;;;3.70;2.40;;;26.30;99.90;;;;;;5091225;28;20224;-61
2021/09/13 11:06:30;;;;;;;3.03;2.40;;;26.30;99.90;;;;;;5091364;28;20207;-60
2021/09/13 11:09:00;;;;;;;2.70;2.50;;;26.30;99.90;;;;;;5096286;28;20200;-60
2021/09/13 11:11:28;;;;;;;2.80;2.60;;;26.30;99.90;;;;;;5094770;28;20232;-61
2021/09/13 11:14:02;;;;;;;3.65;2.70;;;26.30;99.90;;;;;;5094232;28;20223;-62
2021/09/13 11:16:30;;;;;;;3.28;2.50;;;26.50;99.90;;;;;;5096159;28;20203;-64
2021/09/13 11:18:57;;;;;;;6.60;4.28;;;26.60;99.90;;;;;;5095627;28;20211;-61
2021/09/13 11:21:26;;;;;;;4.90;3.13;;;26.80;99.90;;;;;;5096527;28;20228;-60
2021/09/13 11:23:55;;;;;;;2.83;2.47;;;27.10;99.90;;;;;;5092446;28;20323;-61
2021/09/13 11:26:31;;;;;;;6.45;2.40;;;27.30;99.90;;;;;;5092331;28;20204;-62
2021/09/13 11:29:01;;;;;;;2.85;2.50;;;27.50;99.90;;;;;;5096845;28;20204;-63
2021/09/13 11:31:31;;;;;;;3.70;2.90;;;27.40;99.90;;;;;;5095074;28;20227;-63
2021/09/13 11:33:58;;;;;;;3.80;2.20;;;27.40;99.90;;;;;;5090490;28;20246;-63
2021/09/13 11:36:27;;;;;;;3.45;2.45;;;27.50;99.90;;;;;;5090886;28;20594;-61
2021/09/13 11:38:58;;;;;;;3.33;2.40;;;27.70;99.90;;;;;;5090569;28;20628;-61
2021/09/13 11:41:25;;;;;;;3.45;2.90;;;27.80;99.90;;;;;;5090907;28;20260;-58
2021/09/13 11:44:05;;;;;;;2.70;2.50;;;27.70;99.90;;;;;;5090930;28;20231;-60
2021/09/13 11:46:32;;;;;;;2.55;2.35;;;27.70;99.90;;;;;;5091358;28;20207;-59
2021/09/13 11:49:15;;;;;;;2.58;2.38;;;27.60;99.90;;;;;;5091502;28;20622;-60
2021/09/13 11:52:11;;;;;;;2.58;2.35;;;27.40;99.90;;;;;;5090913;28;20258;-60
2021/09/13 11:54:44;;;;;;;4.90;2.80;;;27.40;99.90;;;;;;5090983;28;20204;-59
2021/09/13 11:57:25;;;;;;;2.55;2.35;;;27.50;99.90;;;;;;5091085;28;20215;-59
2021/09/13 11:59:55;;;;;;;11.05;8.27;;;27.50;99.90;;;;;;5091006;28;20208;-60
2021/09/13 12:02:22;;;;;;;3.95;2.35;;;27.40;99.90;;;;;;5090885;28;20200;-60
2021/09/13 12:04:50;;;;;;;4.10;2.70;;;27.40;99.90;;;;;;5090840;28;20204;-59
2021/09/13 12:07:17;;;;;;;3.53;2.50;;;27.30;99.90;;;;;;5090830;28;20204;-59
2021/09/13 12:09:46;;;;;;;3.88;3.47;;;27.50;99.90;;;;;;5091626;28;20212;-60
2021/09/13 12:12:15;;;;;;;3.63;2.10;;;27.70;99.90;;;;;;5095036;28;20228;-58
2021/09/13 12:14:42;;;;;;;4.85;2.53;;;28.00;99.90;;;;;;5094954;28;20752;-60
2021/09/13 12:17:12;;;;;;;4.07;2.70;;;28.20;99.90;;;;;;5094815;28;20208;-60
2021/09/13 12:19:41;;;;;;;3.03;2.53;;;28.50;99.90;;;;;;5095144;28;20215;-60
2021/09/13 12:22:10;;;;;;;2.60;2.40;;;28.60;99.90;;;;;;5094352;28;20208;-60
2021/09/13 12:24:37;;;;;;;3.47;2.50;;;28.80;99.50;;;;;;5094462;28;20220;-60
2021/09/13 12:27:18;;;;;;;2.42;2.22;;;28.80;98.90;;;;;;5094176;28;20668;-60
2021/09/13 12:29:57;;;;;;;3.00;2.25;;;28.90;98.80;;;;;;5094057;28;20706;-60
2021/09/13 12:32:27;;;;;;;3.08;2.55;;;29.00;98.40;;;;;;5093894;28;20223;-60
2021/09/13 12:34:55;;;;;;;4.32;2.60;;;29.10;97.80;;;;;;5094584;28;20215;-59
2021/09/13 12:37:28;;;;;;;2.67;2.38;;;29.10;97.20;;;;;;5094383;28;20205;-60
2021/09/13 12:40:12;;;;;;;2.47;2.10;;;28.90;97.60;;;;;;5094091;28;20211;-59
2021/09/13 12:42:40;;;;;;;2.50;2.22;;;28.80;97.70;;;;;;5094017;28;20328;-60
2021/09/13 12:45:07;;;;;;;4.63;2.92;;;28.70;97.60;;;;;;5093863;28;20215;-59
2021/09/13 12:47:36;;;;;;;4.78;2.30;;;28.80;97.60;;;;;;5093879;28;20208;-61
2021/09/13 12:50:04;;;;;;;3.47;2.30;;;28.90;97.20;;;;;;5093913;28;20204;-60
2021/09/13 12:52:46;;;;;;;2.60;2.40;;;28.90;96.70;;;;;;5093599;28;20234;-60
2021/09/13 12:55:21;;;;;;;3.70;2.30;;;28.90;96.70;;;;;;5093915;28;20570;-59